sensor_id;sensor_type;location;lat;lon;timestamp;pressure;altitude;pressure_sealevel;temperature;humidity
48874;BME280;66155;46.204;5.220;2023-06-22T00:04:28;98478.84;;;23.29;64.73
48874;BME280;66155;46.204;5.220;2023-06-22T00:09:29;98471.78;;;23.21;65.44
48874;BME280;66155;46.204;5.220;2023-06-22T00:14:29;98456.03;;;23.04;65.95
48874;BME280;66155;46.204;5.220;2023-06-22T00:19:29;98444.34;;;22.92;66.14
48874;BME280;66155;46.204;5.220;2023-06-22T00:24:30;98445.66;;;22.86;66.45
48874;BME280;66155;46.204;5.220;2023-06-22T00:29:30;98428.50;;;22.84;67.03
48874;BME280;66155;46.204;5.220;2023-06-22T00:34:31;98432.94;;;22.80;66.77
48874;BME280;66155;46.204;5.220;2023-06-22T00:39:31;98424.31;;;22.70;67.29
48874;BME280;66155;46.204;5.220;2023-06-22T00:44:33;98423.44;;;22.78;66.98
48874;BME280;66155;46.204;5.220;2023-06-22T00:49:33;98417.34;;;22.90;66.81
48874;BME280;66155;46.204;5.220;2023-06-22T00:54:35;98410.88;;;23.04;66.39
48874;BME280;66155;46.204;5.220;2023-06-22T00:59:36;98398.25;;;23.13;66.25
48874;BME280;66155;46.204;5.220;2023-06-22T01:04:37;98398.91;;;23.22;65.95
48874;BME280;66155;46.204;5.220;2023-06-22T01:09:57;98365.13;;;23.23;66.62
48874;BME280;66155;46.204;5.220;2023-06-22T01:15:12;98367.00;;;23.22;66.75
48874;BME280;66155;46.204;5.220;2023-06-22T01:20:17;98366.31;;;23.25;66.34
48874;BME280;66155;46.204;5.220;2023-06-22T01:25:28;98360.66;;;23.27;66.13
48874;BME280;66155;46.204;5.220;2023-06-22T01:30:31;98364.13;;;23.27;65.99
48874;BME280;66155;46.204;5.220;2023-06-22T01:35:35;98371.72;;;23.29;66.18
48874;BME280;66155;46.204;5.220;2023-06-22T01:40:36;98370.56;;;23.14;66.60
48874;BME280;66155;46.204;5.220;2023-06-22T01:45:37;98390.06;;;23.06;66.76
48874;BME280;66155;46.204;5.220;2023-06-22T01:50:38;98386.31;;;22.94;66.80
48874;BME280;66155;46.204;5.220;2023-06-22T01:55:39;98387.47;;;22.69;67.80
48874;BME280;66155;46.204;5.220;2023-06-22T02:00:42;98379.06;;;22.54;68.02
48874;BME280;66155;46.204;5.220;2023-06-22T02:05:48;98388.69;;;22.34;69.00
48874;BME280;66155;46.204;5.220;2023-06-22T02:10:51;98387.38;;;22.28;69.21
48874;BME280;66155;46.204;5.220;2023-06-22T02:15:53;98389.00;;;22.20;69.42
48874;BME280;66155;46.204;5.220;2023-06-22T02:20:54;98388.44;;;22.15;69.45
48874;BME280;66155;46.204;5.220;2023-06-22T02:25:54;98376.72;;;22.03;70.38
48874;BME280;66155;46.204;5.220;2023-06-22T02:30:55;98382.13;;;22.07;70.08
48874;BME280;66155;46.204;5.220;2023-06-22T02:35:55;98389.78;;;22.21;69.26
48874;BME280;66155;46.204;5.220;2023-06-22T02:40:56;98365.34;;;22.28;69.00
48874;BME280;66155;46.204;5.220;2023-06-22T02:45:56;98387.38;;;22.28;69.44
48874;BME280;66155;46.204;5.220;2023-06-22T02:50:56;98398.59;;;22.13;70.24
48874;BME280;66155;46.204;5.220;2023-06-22T02:55:57;98357.72;;;22.14;70.26
48874;BME280;66155;46.204;5.220;2023-06-22T03:00:57;98371.53;;;22.19;69.81
48874;BME280;66155;46.204;5.220;2023-06-22T03:05:58;98370.34;;;22.29;69.49
48874;BME280;66155;46.204;5.220;2023-06-22T03:10:58;98373.09;;;22.33;69.24
48874;BME280;66155;46.204;5.220;2023-06-22T03:15:59;98355.44;;;22.37;69.25
48874;BME280;66155;46.204;5.220;2023-06-22T03:20:59;98361.72;;;22.45;68.73
48874;BME280;66155;46.204;5.220;2023-06-22T03:26:02;98382.72;;;22.50;68.55
48874;BME280;66155;46.204;5.220;2023-06-22T03:31:03;98392.59;;;22.37;69.14
48874;BME280;66155;46.204;5.220;2023-06-22T03:36:04;98407.94;;;22.31;68.89
48874;BME280;66155;46.204;5.220;2023-06-22T03:41:04;98410.56;;;22.07;69.37
48874;BME280;66155;46.204;5.220;2023-06-22T03:46:05;98404.25;;;22.11;69.07
48874;BME280;66155;46.204;5.220;2023-06-22T03:51:06;98423.59;;;22.24;68.55
48874;BME280;66155;46.204;5.220;2023-06-22T03:56:06;98470.25;;;22.13;68.98
48874;BME280;66155;46.204;5.220;2023-06-22T04:01:06;98464.19;;;21.58;70.89
48874;BME280;66155;46.204;5.220;2023-06-22T04:06:08;98467.28;;;21.60;70.74
48874;BME280;66155;46.204;5.220;2023-06-22T04:11:08;98484.44;;;21.83;69.66
48874;BME280;66155;46.204;5.220;2023-06-22T04:16:09;98481.81;;;21.96;69.49
48874;BME280;66155;46.204;5.220;2023-06-22T04:21:10;98492.00;;;22.06;69.41
48874;BME280;66155;46.204;5.220;2023-06-22T04:26:10;98514.19;;;22.23;68.96
48874;BME280;66155;46.204;5.220;2023-06-22T04:31:11;98536.38;;;22.18;69.32
48874;BME280;66155;46.204;5.220;2023-06-22T04:36:12;98562.47;;;22.37;68.59
48874;BME280;66155;46.204;5.220;2023-06-22T04:41:13;98561.84;;;22.65;67.97
48874;BME280;66155;46.204;5.220;2023-06-22T04:46:23;98563.78;;;22.89;67.34
48874;BME280;66155;46.204;5.220;2023-06-22T04:51:24;98594.44;;;22.98;66.99
48874;BME280;66155;46.204;5.220;2023-06-22T04:56:31;98588.94;;;23.16;66.58
48874;BME280;66155;46.204;5.220;2023-06-22T05:01:31;98600.56;;;23.11;66.70
48874;BME280;66155;46.204;5.220;2023-06-22T05:06:32;98589.34;;;22.81;67.32
48874;BME280;66155;46.204;5.220;2023-06-22T05:11:32;98575.28;;;22.93;67.21
48874;BME280;66155;46.204;5.220;2023-06-22T05:16:33;98579.72;;;23.01;66.92
48874;BME280;66155;46.204;5.220;2023-06-22T05:21:33;98558.34;;;22.85;67.18
48874;BME280;66155;46.204;5.220;2023-06-22T05:26:34;98521.69;;;22.78;67.58
48874;BME280;66155;46.204;5.220;2023-06-22T05:31:35;98520.28;;;23.06;66.95
48874;BME280;66155;46.204;5.220;2023-06-22T05:36:35;98533.56;;;23.18;66.28
48874;BME280;66155;46.204;5.220;2023-06-22T05:41:35;98556.50;;;23.10;66.51
48874;BME280;66155;46.204;5.220;2023-06-22T05:46:37;98542.28;;;22.82;67.47
48874;BME280;66155;46.204;5.220;2023-06-22T05:51:37;98551.63;;;22.54;68.38
48874;BME280;66155;46.204;5.220;2023-06-22T05:56:38;98548.47;;;22.28;69.21
48874;BME280;66155;46.204;5.220;2023-06-22T06:01:38;98534.94;;;22.20;69.74
48874;BME280;66155;46.204;5.220;2023-06-22T06:06:40;98542.59;;;22.01;70.61
48874;BME280;66155;46.204;5.220;2023-06-22T06:11:40;98537.38;;;22.26;69.91
48874;BME280;66155;46.204;5.220;2023-06-22T06:16:41;98550.84;;;22.42;69.68
48874;BME280;66155;46.204;5.220;2023-06-22T06:21:41;98548.09;;;22.50;69.50
48874;BME280;66155;46.204;5.220;2023-06-22T06:26:41;98530.91;;;22.81;68.82
48874;BME280;66155;46.204;5.220;2023-06-22T06:31:42;98508.53;;;23.19;67.58
48874;BME280;66155;46.204;5.220;2023-06-22T06:36:42;98523.53;;;23.52;66.94
48874;BME280;66155;46.204;5.220;2023-06-22T06:41:44;98498.66;;;23.85;66.38
48874;BME280;66155;46.204;5.220;2023-06-22T06:46:44;98480.69;;;24.26;65.28
48874;BME280;66155;46.204;5.220;2023-06-22T06:51:45;98478.16;;;24.61;64.47
48874;BME280;66155;46.204;5.220;2023-06-22T06:56:45;98465.75;;;24.85;63.92
48874;BME280;66155;46.204;5.220;2023-06-22T07:01:48;98458.50;;;25.01;63.25
48874;BME280;66155;46.204;5.220;2023-06-22T07:06:48;98468.25;;;25.29;62.84
48874;BME280;66155;46.204;5.220;2023-06-22T07:11:49;98484.66;;;25.31;62.46
48874;BME280;66155;46.204;5.220;2023-06-22T07:16:49;98491.22;;;25.18;62.52
48874;BME280;66155;46.204;5.220;2023-06-22T07:21:50;98492.66;;;25.15;62.82
48874;BME280;66155;46.204;5.220;2023-06-22T07:26:50;98481.66;;;24.81;63.34
48874;BME280;66155;46.204;5.220;2023-06-22T07:31:52;98468.47;;;24.89;63.15
48874;BME280;66155;46.204;5.220;2023-06-22T07:36:52;98456.69;;;25.05;62.62
48874;BME280;66155;46.204;5.220;2023-06-22T07:41:53;98424.75;;;25.25;62.09
48874;BME280;66155;46.204;5.220;2023-06-22T07:46:53;98425.75;;;25.20;62.11
48874;BME280;66155;46.204;5.220;2023-06-22T07:51:54;98442.06;;;25.54;61.62
48874;BME280;66155;46.204;5.220;2023-06-22T07:56:55;98444.00;;;25.77;60.94
48874;BME280;66155;46.204;5.220;2023-06-22T08:01:55;98407.94;;;26.06;60.54
48874;BME280;66155;46.204;5.220;2023-06-22T08:06:56;98370.78;;;26.21;60.14
48874;BME280;66155;46.204;5.220;2023-06-22T08:11:56;98415.72;;;26.42;59.73
48874;BME280;66155;46.204;5.220;2023-06-22T08:16:57;98412.69;;;26.66;59.68
48874;BME280;66155;46.204;5.220;2023-06-22T08:21:57;98425.94;;;26.86;58.89
48874;BME280;66155;46.204;5.220;2023-06-22T08:26:58;98436.06;;;27.00;58.61
48874;BME280;66155;46.204;5.220;2023-06-22T08:31:58;98446.03;;;27.03;58.24
48874;BME280;66155;46.204;5.220;2023-06-22T08:36:58;98468.63;;;27.09;58.36
48874;BME280;66155;46.204;5.220;2023-06-22T08:41:59;98486.59;;;26.82;58.40
48874;BME280;66155;46.204;5.220;2023-06-22T08:46:59;98502.84;;;26.69;59.38
48874;BME280;66155;46.204;5.220;2023-06-22T08:52:00;98499.16;;;26.78;59.18
48874;BME280;66155;46.204;5.220;2023-06-22T08:57:02;98533.97;;;26.81;58.63
48874;BME280;66155;46.204;5.220;2023-06-22T09:02:02;98558.66;;;26.74;58.57
48874;BME280;66155;46.204;5.220;2023-06-22T09:07:03;98601.38;;;26.71;59.33
48874;BME280;66155;46.204;5.220;2023-06-22T09:12:04;98604.94;;;26.59;59.84
48874;BME280;66155;46.204;5.220;2023-06-22T09:17:05;98611.84;;;26.60;59.68
48874;BME280;66155;46.204;5.220;2023-06-22T09:22:05;98618.75;;;26.42;60.47
48874;BME280;66155;46.204;5.220;2023-06-22T09:27:08;98640.44;;;25.97;61.43
48874;BME280;66155;46.204;5.220;2023-06-22T09:32:09;98701.94;;;25.69;61.84
48874;BME280;66155;46.204;5.220;2023-06-22T09:37:12;98703.66;;;25.46;61.56
48874;BME280;66155;46.204;5.220;2023-06-22T09:42:12;98682.50;;;25.53;61.74
48874;BME280;66155;46.204;5.220;2023-06-22T09:47:13;98672.81;;;25.80;60.65
48874;BME280;66155;46.204;5.220;2023-06-22T09:52:14;98668.47;;;25.91;60.58
48874;BME280;66155;46.204;5.220;2023-06-22T09:57:14;98658.03;;;25.67;59.56
48874;BME280;66155;46.204;5.220;2023-06-22T10:02:15;98633.94;;;25.98;58.99
48874;BME280;66155;46.204;5.220;2023-06-22T10:07:15;98628.34;;;26.23;57.04
48874;BME280;66155;46.204;5.220;2023-06-22T10:12:16;98612.19;;;26.59;55.67
48874;BME280;66155;46.204;5.220;2023-06-22T10:17:16;98602.53;;;26.73;55.03
48874;BME280;66155;46.204;5.220;2023-06-22T10:22:16;98597.41;;;27.11;53.71
48874;BME280;66155;46.204;5.220;2023-06-22T10:27:18;98616.72;;;27.24;54.11
48874;BME280;66155;46.204;5.220;2023-06-22T10:32:18;98644.78;;;27.34;53.60
48874;BME280;66155;46.204;5.220;2023-06-22T10:37:18;98685.47;;;26.77;53.71
48874;BME280;66155;46.204;5.220;2023-06-22T10:42:19;98710.72;;;26.21;54.67
48874;BME280;66155;46.204;5.220;2023-06-22T10:47:19;98741.94;;;25.85;55.83
48874;BME280;66155;46.204;5.220;2023-06-22T10:52:20;98762.19;;;25.54;56.89
48874;BME280;66155;46.204;5.220;2023-06-22T10:57:21;98737.41;;;25.38;57.28
48874;BME280;66155;46.204;5.220;2023-06-22T11:02:22;98705.16;;;25.27;56.79
48874;BME280;66155;46.204;5.220;2023-06-22T11:07:23;98706.03;;;25.03;56.81
48874;BME280;66155;46.204;5.220;2023-06-22T11:12:24;98711.81;;;25.05;57.04
48874;BME280;66155;46.204;5.220;2023-06-22T11:17:24;98737.03;;;25.23;56.70
48874;BME280;66155;46.204;5.220;2023-06-22T11:22:24;98742.66;;;25.06;57.80
48874;BME280;66155;46.204;5.220;2023-06-22T11:27:25;98729.91;;;24.83;58.54
48874;BME280;66155;46.204;5.220;2023-06-22T11:32:26;98735.03;;;24.76;59.16
48874;BME280;66155;46.204;5.220;2023-06-22T11:37:26;98754.44;;;24.89;58.98
48874;BME280;66155;46.204;5.220;2023-06-22T11:42:27;98739.69;;;24.79;60.07
48874;BME280;66155;46.204;5.220;2023-06-22T11:47:29;98726.94;;;24.73;60.44
48874;BME280;66155;46.204;5.220;2023-06-22T11:52:29;98713.22;;;24.86;60.03
48874;BME280;66155;46.204;5.220;2023-06-22T11:57:30;98694.09;;;25.13;59.08
48874;BME280;66155;46.204;5.220;2023-06-22T12:02:30;98701.97;;;25.37;58.70
48874;BME280;66155;46.204;5.220;2023-06-22T12:07:30;98674.31;;;25.46;58.59
48874;BME280;66155;46.204;5.220;2023-06-22T12:12:31;98696.63;;;25.37;58.04
48874;BME280;66155;46.204;5.220;2023-06-22T12:17:31;98678.69;;;25.22;57.43
48874;BME280;66155;46.204;5.220;2023-06-22T12:22:32;98684.72;;;25.19;57.37
48874;BME280;66155;46.204;5.220;2023-06-22T12:27:33;98668.63;;;25.15;56.99
48874;BME280;66155;46.204;5.220;2023-06-22T12:32:34;98668.81;;;25.22;57.10
48874;BME280;66155;46.204;5.220;2023-06-22T12:37:34;98661.72;;;25.27;56.55
48874;BME280;66155;46.204;5.220;2023-06-22T12:42:35;98666.25;;;25.26;56.45
48874;BME280;66155;46.204;5.220;2023-06-22T12:47:35;98650.69;;;25.28;56.32
48874;BME280;66155;46.204;5.220;2023-06-22T12:52:36;98638.88;;;25.45;55.52
48874;BME280;66155;46.204;5.220;2023-06-22T12:57:40;98600.06;;;25.64;55.02
48874;BME280;66155;46.204;5.220;2023-06-22T13:02:40;98617.66;;;25.68;54.69
48874;BME280;66155;46.204;5.220;2023-06-22T13:07:40;98592.97;;;25.71;54.59
48874;BME280;66155;46.204;5.220;2023-06-22T13:12:42;98592.03;;;25.83;54.06
48874;BME280;66155;46.204;5.220;2023-06-22T13:17:43;98601.16;;;25.63;53.07
48874;BME280;66155;46.204;5.220;2023-06-22T13:22:43;98588.72;;;25.70;52.71
48874;BME280;66155;46.204;5.220;2023-06-22T13:27:44;98587.56;;;25.68;51.95
48874;BME280;66155;46.204;5.220;2023-06-22T13:32:44;98610.44;;;25.69;51.91
48874;BME280;66155;46.204;5.220;2023-06-22T13:37:45;98619.50;;;25.64;51.31
48874;BME280;66155;46.204;5.220;2023-06-22T13:42:45;98657.97;;;25.63;51.18
48874;BME280;66155;46.204;5.220;2023-06-22T13:47:45;98669.00;;;25.46;51.87
48874;BME280;66155;46.204;5.220;2023-06-22T13:52:46;98666.25;;;25.26;51.13
48874;BME280;66155;46.204;5.220;2023-06-22T13:57:46;98682.13;;;25.07;50.88
48874;BME280;66155;46.204;5.220;2023-06-22T14:02:47;98698.38;;;24.17;51.97
48874;BME280;66155;46.204;5.220;2023-06-22T14:07:47;98707.25;;;23.47;53.48
48874;BME280;66155;46.204;5.220;2023-06-22T14:12:48;98741.47;;;23.03;55.14
48874;BME280;66155;46.204;5.220;2023-06-22T14:17:48;98761.09;;;22.56;57.06
48874;BME280;66155;46.204;5.220;2023-06-22T14:22:48;98775.66;;;22.50;57.59
48874;BME280;66155;46.204;5.220;2023-06-22T14:27:49;98764.59;;;22.69;56.94
48874;BME280;66155;46.204;5.220;2023-06-22T14:32:49;98767.03;;;22.74;56.71
48874;BME280;66155;46.204;5.220;2023-06-22T14:37:50;98808.50;;;22.66;57.65
48874;BME280;66155;46.204;5.220;2023-06-22T14:42:50;98822.72;;;22.40;58.31
48874;BME280;66155;46.204;5.220;2023-06-22T14:47:52;98858.78;;;22.03;60.03
48874;BME280;66155;46.204;5.220;2023-06-22T14:52:52;98859.63;;;21.86;60.09
48874;BME280;66155;46.204;5.220;2023-06-22T14:57:53;98885.41;;;21.68;61.00
48874;BME280;66155;46.204;5.220;2023-06-22T15:02:53;98913.34;;;21.48;61.79
48874;BME280;66155;46.204;5.220;2023-06-22T15:07:53;98908.19;;;21.43;61.91
48874;BME280;66155;46.204;5.220;2023-06-22T15:12:54;98875.91;;;21.32;62.56
48874;BME280;66155;46.204;5.220;2023-06-22T15:17:54;98857.06;;;21.16;63.31
48874;BME280;66155;46.204;5.220;2023-06-22T15:22:54;98853.78;;;21.11;64.24
48874;BME280;66155;46.204;5.220;2023-06-22T15:27:55;98840.53;;;21.11;64.97
48874;BME280;66155;46.204;5.220;2023-06-22T15:32:56;98844.56;;;21.08;65.10
48874;BME280;66155;46.204;5.220;2023-06-22T15:37:57;98825.88;;;21.13;65.35
48874;BME280;66155;46.204;5.220;2023-06-22T15:42:57;98848.81;;;21.18;65.68
48874;BME280;66155;46.204;5.220;2023-06-22T15:47:58;98857.22;;;21.02;66.64
48874;BME280;66155;46.204;5.220;2023-06-22T15:52:58;98858.94;;;20.98;66.10
48874;BME280;66155;46.204;5.220;2023-06-22T15:57:58;98847.06;;;20.96;66.35
48874;BME280;66155;46.204;5.220;2023-06-22T16:02:59;98855.16;;;20.99;65.58
48874;BME280;66155;46.204;5.220;2023-06-22T16:07:59;98856.59;;;21.05;65.91
48874;BME280;66155;46.204;5.220;2023-06-22T16:13:00;98838.03;;;21.14;65.20
48874;BME280;66155;46.204;5.220;2023-06-22T16:18:00;98840.50;;;21.28;64.45
48874;BME280;66155;46.204;5.220;2023-06-22T16:23:01;98865.63;;;21.39;63.96
48874;BME280;66155;46.204;5.220;2023-06-22T16:28:01;98855.47;;;21.41;63.95
48874;BME280;66155;46.204;5.220;2023-06-22T16:33:02;98873.09;;;21.02;65.06
48874;BME280;66155;46.204;5.220;2023-06-22T16:38:02;98872.19;;;21.07;64.72
48874;BME280;66155;46.204;5.220;2023-06-22T16:43:06;98884.63;;;21.15;64.21
48874;BME280;66155;46.204;5.220;2023-06-22T16:48:06;98892.38;;;20.77;65.54
48874;BME280;66155;46.204;5.220;2023-06-22T16:53:07;98890.56;;;20.95;64.94
48874;BME280;66155;46.204;5.220;2023-06-22T16:58:09;98905.97;;;20.84;65.75
48874;BME280;66155;46.204;5.220;2023-06-22T17:03:22;98910.47;;;20.92;65.48
48874;BME280;66155;46.204;5.220;2023-06-22T17:08:31;98899.88;;;20.92;65.37
48874;BME280;66155;46.204;5.220;2023-06-22T17:13:34;98891.47;;;20.99;65.00
48874;BME280;66155;46.204;5.220;2023-06-22T17:18:39;98882.13;;;21.10;64.96
48874;BME280;66155;46.204;5.220;2023-06-22T17:23:40;98888.69;;;21.21;64.59
48874;BME280;66155;46.204;5.220;2023-06-22T17:28:51;98899.59;;;21.20;64.42
48874;BME280;66155;46.204;5.220;2023-06-22T17:33:52;98891.19;;;21.26;64.13
48874;BME280;66155;46.204;5.220;2023-06-22T17:38:58;98889.78;;;21.29;63.76
48874;BME280;66155;46.204;5.220;2023-06-22T17:43:59;98898.19;;;21.31;63.76
48874;BME280;66155;46.204;5.220;2023-06-22T17:49:01;98905.22;;;21.27;64.01
48874;BME280;66155;46.204;5.220;2023-06-22T17:54:10;98921.88;;;21.19;64.02
48874;BME280;66155;46.204;5.220;2023-06-22T17:59:11;98930.75;;;20.97;64.71
48874;BME280;66155;46.204;5.220;2023-06-22T18:04:14;98942.59;;;20.99;64.84
48874;BME280;66155;46.204;5.220;2023-06-22T18:09:16;98966.16;;;20.61;66.41
48874;BME280;66155;46.204;5.220;2023-06-22T18:14:18;98973.88;;;20.17;68.10
48874;BME280;66155;46.204;5.220;2023-06-22T18:19:19;98971.88;;;20.23;67.69
48874;BME280;66155;46.204;5.220;2023-06-22T18:24:19;98976.78;;;20.38;67.51
48874;BME280;66155;46.204;5.220;2023-06-22T18:29:20;98973.28;;;20.60;66.98
48874;BME280;66155;46.204;5.220;2023-06-22T18:34:21;98979.91;;;20.72;67.26
48874;BME280;66155;46.204;5.220;2023-06-22T18:39:22;98985.22;;;20.80;67.12
48874;BME280;66155;46.204;5.220;2023-06-22T18:44:26;98983.69;;;20.88;67.08
48874;BME280;66155;46.204;5.220;2023-06-22T18:59:45;99004.47;;;21.03;67.48
48874;BME280;66155;46.204;5.220;2023-06-22T19:04:46;99002.47;;;21.09;67.52
48874;BME280;66155;46.204;5.220;2023-06-22T19:10:25;99021.16;;;21.13;67.88
48874;BME280;66155;46.204;5.220;2023-06-22T19:15:32;99025.06;;;21.15;67.49
48874;BME280;66155;46.204;5.220;2023-06-22T19:20:33;99033.00;;;21.15;67.57
48874;BME280;66155;46.204;5.220;2023-06-22T19:25:34;99036.59;;;21.11;67.47
48874;BME280;66155;46.204;5.220;2023-06-22T19:30:35;99045.75;;;21.04;67.92
48874;BME280;66155;46.204;5.220;2023-06-22T19:35:35;99063.88;;;20.80;68.49
48874;BME280;66155;46.204;5.220;2023-06-22T19:40:39;99069.25;;;20.66;69.31
48874;BME280;66155;46.204;5.220;2023-06-22T19:45:40;99089.81;;;20.38;70.36
48874;BME280;66155;46.204;5.220;2023-06-22T19:50:41;99083.03;;;20.09;72.88
48874;BME280;66155;46.204;5.220;2023-06-22T19:55:47;99083.59;;;19.69;75.65
48874;BME280;66155;46.204;5.220;2023-06-22T20:00:47;99108.22;;;19.56;75.67
48874;BME280;66155;46.204;5.220;2023-06-22T20:05:54;99116.81;;;19.48;77.30
48874;BME280;66155;46.204;5.220;2023-06-22T20:10:57;99129.34;;;19.42;76.76
48874;BME280;66155;46.204;5.220;2023-06-22T20:16:08;99133.53;;;19.43;77.94
48874;BME280;66155;46.204;5.220;2023-06-22T20:21:13;99140.59;;;19.48;77.05
48874;BME280;66155;46.204;5.220;2023-06-22T20:26:13;99144.03;;;19.48;76.68
48874;BME280;66155;46.204;5.220;2023-06-22T20:31:17;99160.88;;;19.52;77.09
48874;BME280;66155;46.204;5.220;2023-06-22T20:36:17;99156.75;;;19.46;77.21
48874;BME280;66155;46.204;5.220;2023-06-22T20:41:18;99174.94;;;19.34;79.02
48874;BME280;66155;46.204;5.220;2023-06-22T20:46:18;99168.28;;;19.23;80.15
48874;BME280;66155;46.204;5.220;2023-06-22T20:51:19;99168.38;;;19.17;79.46
48874;BME280;66155;46.204;5.220;2023-06-22T20:56:19;99179.34;;;19.25;79.56
48874;BME280;66155;46.204;5.220;2023-06-22T21:01:20;99182.88;;;19.34;78.98
48874;BME280;66155;46.204;5.220;2023-06-22T21:06:20;99184.56;;;19.44;79.15
48874;BME280;66155;46.204;5.220;2023-06-22T21:11:21;99198.38;;;19.54;78.53
48874;BME280;66155;46.204;5.220;2023-06-22T21:16:21;99203.25;;;19.61;78.63
48874;BME280;66155;46.204;5.220;2023-06-22T21:21:22;99224.09;;;19.63;79.32
48874;BME280;66155;46.204;5.220;2023-06-22T21:26:22;99225.84;;;19.53;80.48
48874;BME280;66155;46.204;5.220;2023-06-22T21:31:23;99240.44;;;19.37;80.56
48874;BME280;66155;46.204;5.220;2023-06-22T21:36:23;99234.56;;;19.40;80.16
48874;BME280;66155;46.204;5.220;2023-06-22T21:41:24;99241.41;;;19.41;79.73
48874;BME280;66155;46.204;5.220;2023-06-22T21:46:24;99246.78;;;19.36;80.33
48874;BME280;66155;46.204;5.220;2023-06-22T21:51:24;99262.06;;;19.39;80.22
48874;BME280;66155;46.204;5.220;2023-06-22T21:56:25;99255.19;;;19.38;80.17
48874;BME280;66155;46.204;5.220;2023-06-22T22:01:25;99265.47;;;19.40;80.32
48874;BME280;66155;46.204;5.220;2023-06-22T22:06:26;99270.97;;;19.43;80.11
48874;BME280;66155;46.204;5.220;2023-06-22T22:11:29;99272.34;;;19.41;80.44
48874;BME280;66155;46.204;5.220;2023-06-22T22:16:29;99266.47;;;19.44;80.42
48874;BME280;66155;46.204;5.220;2023-06-22T22:21:30;99281.66;;;19.52;80.21
48874;BME280;66155;46.204;5.220;2023-06-22T22:26:30;99272.38;;;19.54;80.09
48874;BME280;66155;46.204;5.220;2023-06-22T22:31:31;99272.28;;;19.60;79.75
48874;BME280;66155;46.204;5.220;2023-06-22T22:36:37;99269.13;;;19.57;79.70
48874;BME280;66155;46.204;5.220;2023-06-22T22:41:40;99277.66;;;19.54;80.21
48874;BME280;66155;46.204;5.220;2023-06-22T22:46:41;99262.31;;;19.70;79.74
48874;BME280;66155;46.204;5.220;2023-06-22T22:51:41;99274.09;;;19.78;79.67
48874;BME280;66155;46.204;5.220;2023-06-22T22:56:42;99278.91;;;19.90;79.13
48874;BME280;66155;46.204;5.220;2023-06-22T23:01:42;99286.13;;;19.98;78.57
48874;BME280;66155;46.204;5.220;2023-06-22T23:06:43;99298.28;;;19.99;78.42
48874;BME280;66155;46.204;5.220;2023-06-22T23:11:44;99296.63;;;20.03;78.87
48874;BME280;66155;46.204;5.220;2023-06-22T23:16:45;99295.03;;;20.16;78.43
48874;BME280;66155;46.204;5.220;2023-06-22T23:21:46;99297.28;;;20.23;78.32
48874;BME280;66155;46.204;5.220;2023-06-22T23:26:49;99292.69;;;20.28;77.89
48874;BME280;66155;46.204;5.220;2023-06-22T23:31:52;99303.66;;;20.36;77.54
48874;BME280;66155;46.204;5.220;2023-06-22T23:36:54;99296.63;;;20.31;77.62
48874;BME280;66155;46.204;5.220;2023-06-22T23:41:54;99297.00;;;20.24;77.42
48874;BME280;66155;46.204;5.220;2023-06-22T23:46:54;99301.13;;;20.17;78.04
48874;BME280;66155;46.204;5.220;2023-06-22T23:51:57;99300.63;;;20.14;77.90
48874;BME280;66155;46.204;5.220;2023-06-22T23:56:58;99312.09;;;20.10;78.01
